Sartell, MN (56377)

12:11 AM CDT on May 24, 2015 (GMT -0500)
Bridgeport | | Change Station
CLOSE
Current Station
Personal Weather Station
Location: Sartell, MN
Elevation: 1037 ft
Nearby Weather Stations

Elev 1037 ft 45.60 °N, 94.20 °W | Updated 7 seconds ago

Overcast
Overcast
61.0 °F
Feels Like 61.0 °F
N
0.0
Wind Variable Wind from East
Gusts 6.0 mph

Today
High -- | Low -- °F
--% Chance of Precip.
Yesterday
High -- | Low -- °F
Precip. -- in
5:36 AM 8:50 PM
Waxing Crescent, 36% visible
Pressure 30.16 in
Visibility 10.0 miles
Clouds Overcast 8500 ft
Dew Point 54 °F
Humidity 77%
Rainfall 0.00 in
Snow Depth Not available.
UV 0 out of 12
Pollen 7.40 out of 12
Air Quality Not available.
Flu Activity Sporadic
METAR KSTC 240453Z AUTO 00000KT 10SM OVC085 16/09 A3014 RMK AO2 RAB0356E06 SLP213 P0000 T01560089

More Conditions Fewer Conditions

Pressure 30.16 in
Visibility 10.0 miles
Clouds Overcast 8500 ft
Dew Point 54 °F
Humidity 77%
Rainfall 0.00 in
Snow Depth Not available.
UV 0 out of 12
Pollen 7.40 out of 12
Air Quality Not available.
Flu Activity Sporadic
METAR KSTC 240453Z AUTO 00000KT 10SM OVC085 16/09 A3014 RMK AO2 RAB0356E06 SLP213 P0000 T01560089

More Conditions Fewer Conditions

10-Day Weather Forecast

Almanac

Astronomy

May. 24, 2015 Rise Set
Actual Time
Civil Twilight
Nautical Twilight
Astronomical Twilight
Moon
Length of Visible Light
Length of Day
Tomorrow will be .
, % of the Moon is Illuminated

Today's Extremes

State Highs State Lows

Community

WunderPhotos

Upload Photos

1,823,691 photos uploaded!

WunderBlogs® & News

Nearby

Air Quality

  Air Quality AQ Index Pollutant
Not available.

Snow Depth

Station Depth Elevation

Earthquake Activity

City Distance Mag. Time & Date
Minimum magnitude displayed is 2.5.

Coastal Water Temperatures

Place Temperature

Stations

Nearby Weather Stations

Station Location Temp. Windchill Dew Point Humidity Wind Precip. Elev Updated Type